sensor_id;sensor_type;location;lat;lon;timestamp;P1;durP1;ratioP1;P2;durP2;ratioP2
76021;SDS011;64718;52.124;6.226;2023-04-06T00:00:05;8.50;;;4.97;;
76021;SDS011;64718;52.124;6.226;2023-04-06T00:02:34;6.00;;;3.70;;
76021;SDS011;64718;52.124;6.226;2023-04-06T00:05:02;7.22;;;3.97;;
76021;SDS011;64718;52.124;6.226;2023-04-06T00:07:29;7.43;;;3.95;;
76021;SDS011;64718;52.124;6.226;2023-04-06T00:09:55;8.27;;;4.20;;
76021;SDS011;64718;52.124;6.226;2023-04-06T00:12:22;7.32;;;4.43;;
76021;SDS011;64718;52.124;6.226;2023-04-06T00:14:48;8.82;;;4.30;;
76021;SDS011;64718;52.124;6.226;2023-04-06T00:17:17;8.70;;;4.50;;
76021;SDS011;64718;52.124;6.226;2023-04-06T00:19:44;10.80;;;4.53;;
76021;SDS011;64718;52.124;6.226;2023-04-06T00:22:12;8.27;;;4.00;;
76021;SDS011;64718;52.124;6.226;2023-04-06T00:24:38;7.47;;;4.03;;
76021;SDS011;64718;52.124;6.226;2023-04-06T00:27:05;8.05;;;4.32;;
76021;SDS011;64718;52.124;6.226;2023-04-06T00:29:31;11.98;;;4.63;;
76021;SDS011;64718;52.124;6.226;2023-04-06T00:31:58;10.77;;;5.47;;
76021;SDS011;64718;52.124;6.226;2023-04-06T00:34:25;9.18;;;4.68;;
76021;SDS011;64718;52.124;6.226;2023-04-06T00:36:51;10.27;;;5.30;;
76021;SDS011;64718;52.124;6.226;2023-04-06T00:39:19;11.48;;;5.45;;
76021;SDS011;64718;52.124;6.226;2023-04-06T00:41:49;9.88;;;5.07;;
76021;SDS011;64718;52.124;6.226;2023-04-06T00:44:18;9.82;;;4.75;;
76021;SDS011;64718;52.124;6.226;2023-04-06T00:46:47;8.32;;;5.22;;
76021;SDS011;64718;52.124;6.226;2023-04-06T00:49:14;9.85;;;4.75;;
76021;SDS011;64718;52.124;6.226;2023-04-06T00:51:41;8.57;;;4.28;;
76021;SDS011;64718;52.124;6.226;2023-04-06T00:54:07;8.82;;;4.10;;
76021;SDS011;64718;52.124;6.226;2023-04-06T00:56:35;8.85;;;4.30;;
76021;SDS011;64718;52.124;6.226;2023-04-06T00:59:02;8.18;;;5.82;;
76021;SDS011;64718;52.124;6.226;2023-04-06T01:01:29;11.45;;;4.40;;
76021;SDS011;64718;52.124;6.226;2023-04-06T01:03:57;9.27;;;4.88;;
76021;SDS011;64718;52.124;6.226;2023-04-06T01:06:24;8.35;;;4.28;;
76021;SDS011;64718;52.124;6.226;2023-04-06T01:08:50;11.55;;;4.78;;
76021;SDS011;64718;52.124;6.226;2023-04-06T01:11:18;7.38;;;4.95;;
76021;SDS011;64718;52.124;6.226;2023-04-06T01:13:49;9.25;;;4.75;;
76021;SDS011;64718;52.124;6.226;2023-04-06T01:16:19;8.77;;;5.07;;
76021;SDS011;64718;52.124;6.226;2023-04-06T01:18:45;7.15;;;4.28;;
76021;SDS011;64718;52.124;6.226;2023-04-06T01:21:13;10.77;;;5.28;;
76021;SDS011;64718;52.124;6.226;2023-04-06T01:23:43;10.48;;;5.30;;
76021;SDS011;64718;52.124;6.226;2023-04-06T01:26:11;9.82;;;5.18;;
76021;SDS011;64718;52.124;6.226;2023-04-06T01:28:37;11.05;;;5.15;;
76021;SDS011;64718;52.124;6.226;2023-04-06T01:31:04;10.25;;;4.78;;
76021;SDS011;64718;52.124;6.226;2023-04-06T01:33:32;7.88;;;4.40;;
76021;SDS011;64718;52.124;6.226;2023-04-06T01:35:59;8.02;;;4.22;;
76021;SDS011;64718;52.124;6.226;2023-04-06T01:38:26;9.98;;;4.97;;
76021;SDS011;64718;52.124;6.226;2023-04-06T01:40:54;10.05;;;4.88;;
76021;SDS011;64718;52.124;6.226;2023-04-06T01:43:21;9.20;;;6.15;;
76021;SDS011;64718;52.124;6.226;2023-04-06T01:45:48;12.60;;;5.60;;
76021;SDS011;64718;52.124;6.226;2023-04-06T01:48:14;10.85;;;5.32;;
76021;SDS011;64718;52.124;6.226;2023-04-06T01:50:42;9.88;;;6.28;;
76021;SDS011;64718;52.124;6.226;2023-04-06T01:53:09;9.30;;;4.65;;
76021;SDS011;64718;52.124;6.226;2023-04-06T01:55:35;9.85;;;5.15;;
76021;SDS011;64718;52.124;6.226;2023-04-06T01:58:03;10.00;;;5.15;;
76021;SDS011;64718;52.124;6.226;2023-04-06T02:00:30;13.35;;;5.40;;
76021;SDS011;64718;52.124;6.226;2023-04-06T02:03:03;8.45;;;5.00;;
76021;SDS011;64718;52.124;6.226;2023-04-06T02:05:30;9.93;;;5.20;;
76021;SDS011;64718;52.124;6.226;2023-04-06T02:08:02;7.40;;;5.10;;
76021;SDS011;64718;52.124;6.226;2023-04-06T02:10:29;11.98;;;5.10;;
76021;SDS011;64718;52.124;6.226;2023-04-06T02:12:56;9.45;;;5.05;;
76021;SDS011;64718;52.124;6.226;2023-04-06T02:15:24;9.48;;;5.30;;
76021;SDS011;64718;52.124;6.226;2023-04-06T02:17:50;10.23;;;4.75;;
76021;SDS011;64718;52.124;6.226;2023-04-06T02:20:17;8.90;;;5.15;;
76021;SDS011;64718;52.124;6.226;2023-04-06T02:22:43;12.68;;;5.85;;
76021;SDS011;64718;52.124;6.226;2023-04-06T02:25:10;9.95;;;5.10;;
76021;SDS011;64718;52.124;6.226;2023-04-06T02:27:36;9.18;;;4.70;;
76021;SDS011;64718;52.124;6.226;2023-04-06T02:30:03;9.13;;;6.05;;
76021;SDS011;64718;52.124;6.226;2023-04-06T02:32:32;9.70;;;5.55;;
76021;SDS011;64718;52.124;6.226;2023-04-06T02:34:59;10.48;;;4.85;;
76021;SDS011;64718;52.124;6.226;2023-04-06T02:37:26;11.18;;;4.72;;
76021;SDS011;64718;52.124;6.226;2023-04-06T02:39:53;9.90;;;5.63;;
76021;SDS011;64718;52.124;6.226;2023-04-06T02:42:20;12.77;;;5.25;;
76021;SDS011;64718;52.124;6.226;2023-04-06T02:44:46;12.02;;;5.47;;
76021;SDS011;64718;52.124;6.226;2023-04-06T02:47:13;10.63;;;5.95;;
76021;SDS011;64718;52.124;6.226;2023-04-06T02:49:41;11.18;;;6.10;;
76021;SDS011;64718;52.124;6.226;2023-04-06T02:52:07;10.50;;;5.45;;
76021;SDS011;64718;52.124;6.226;2023-04-06T02:54:34;10.43;;;5.40;;
76021;SDS011;64718;52.124;6.226;2023-04-06T02:57:00;14.00;;;6.15;;
76021;SDS011;64718;52.124;6.226;2023-04-06T02:59:27;10.35;;;5.10;;
76021;SDS011;64718;52.124;6.226;2023-04-06T03:01:53;10.98;;;5.57;;
76021;SDS011;64718;52.124;6.226;2023-04-06T03:04:20;12.55;;;5.68;;
76021;SDS011;64718;52.124;6.226;2023-04-06T03:06:49;10.10;;;5.47;;
76021;SDS011;64718;52.124;6.226;2023-04-06T03:09:15;11.15;;;5.20;;
76021;SDS011;64718;52.124;6.226;2023-04-06T03:11:42;10.30;;;5.78;;
76021;SDS011;64718;52.124;6.226;2023-04-06T03:14:08;11.13;;;5.18;;
76021;SDS011;64718;52.124;6.226;2023-04-06T03:16:35;13.05;;;6.07;;
76021;SDS011;64718;52.124;6.226;2023-04-06T03:19:01;11.35;;;5.45;;
76021;SDS011;64718;52.124;6.226;2023-04-06T03:21:28;11.60;;;6.57;;
76021;SDS011;64718;52.124;6.226;2023-04-06T03:23:56;10.35;;;6.22;;
76021;SDS011;64718;52.124;6.226;2023-04-06T03:26:22;12.88;;;5.97;;
76021;SDS011;64718;52.124;6.226;2023-04-06T03:28:49;10.80;;;6.15;;
76021;SDS011;64718;52.124;6.226;2023-04-06T03:31:15;11.20;;;5.38;;
76021;SDS011;64718;52.124;6.226;2023-04-06T03:33:42;14.25;;;6.75;;
76021;SDS011;64718;52.124;6.226;2023-04-06T03:36:08;12.30;;;6.13;;
76021;SDS011;64718;52.124;6.226;2023-04-06T03:38:35;15.95;;;6.68;;
76021;SDS011;64718;52.124;6.226;2023-04-06T03:41:03;12.75;;;6.88;;
76021;SDS011;64718;52.124;6.226;2023-04-06T03:43:29;14.68;;;8.27;;
76021;SDS011;64718;52.124;6.226;2023-04-06T03:45:56;13.52;;;6.32;;
76021;SDS011;64718;52.124;6.226;2023-04-06T03:48:22;13.68;;;6.35;;
76021;SDS011;64718;52.124;6.226;2023-04-06T03:50:49;12.80;;;6.10;;
76021;SDS011;64718;52.124;6.226;2023-04-06T03:53:15;12.95;;;6.10;;
76021;SDS011;64718;52.124;6.226;2023-04-06T03:55:42;10.80;;;6.10;;
76021;SDS011;64718;52.124;6.226;2023-04-06T03:58:09;12.98;;;6.50;;
76021;SDS011;64718;52.124;6.226;2023-04-06T04:00:36;14.18;;;7.35;;
76021;SDS011;64718;52.124;6.226;2023-04-06T04:03:03;13.63;;;8.18;;
76021;SDS011;64718;52.124;6.226;2023-04-06T04:05:30;14.43;;;6.57;;
76021;SDS011;64718;52.124;6.226;2023-04-06T04:07:56;11.98;;;6.35;;
76021;SDS011;64718;52.124;6.226;2023-04-06T04:10:23;12.32;;;6.55;;
76021;SDS011;64718;52.124;6.226;2023-04-06T04:12:52;14.73;;;7.13;;
76021;SDS011;64718;52.124;6.226;2023-04-06T04:17:47;10.70;;;6.25;;
76021;SDS011;64718;52.124;6.226;2023-04-06T04:20:14;13.50;;;6.20;;
76021;SDS011;64718;52.124;6.226;2023-04-06T04:22:41;13.52;;;6.13;;
76021;SDS011;64718;52.124;6.226;2023-04-06T04:25:08;12.70;;;6.70;;
76021;SDS011;64718;52.124;6.226;2023-04-06T04:27:35;14.40;;;6.78;;
76021;SDS011;64718;52.124;6.226;2023-04-06T04:30:01;15.80;;;7.22;;
76021;SDS011;64718;52.124;6.226;2023-04-06T04:32:29;13.27;;;6.90;;
76021;SDS011;64718;52.124;6.226;2023-04-06T04:34:56;15.32;;;7.30;;
76021;SDS011;64718;52.124;6.226;2023-04-06T04:37:22;13.43;;;6.35;;
76021;SDS011;64718;52.124;6.226;2023-04-06T04:39:49;15.15;;;7.90;;
76021;SDS011;64718;52.124;6.226;2023-04-06T04:42:15;13.40;;;6.70;;
76021;SDS011;64718;52.124;6.226;2023-04-06T04:44:42;16.70;;;7.65;;
76021;SDS011;64718;52.124;6.226;2023-04-06T04:47:08;14.52;;;7.32;;
76021;SDS011;64718;52.124;6.226;2023-04-06T04:49:36;13.45;;;6.70;;
76021;SDS011;64718;52.124;6.226;2023-04-06T04:52:03;16.27;;;7.63;;
76021;SDS011;64718;52.124;6.226;2023-04-06T04:54:29;13.18;;;7.97;;
76021;SDS011;64718;52.124;6.226;2023-04-06T04:56:56;15.90;;;7.93;;
76021;SDS011;64718;52.124;6.226;2023-04-06T04:59:22;14.20;;;7.28;;
76021;SDS011;64718;52.124;6.226;2023-04-06T05:01:49;14.85;;;7.63;;
76021;SDS011;64718;52.124;6.226;2023-04-06T05:04:15;15.55;;;6.85;;
76021;SDS011;64718;52.124;6.226;2023-04-06T05:06:43;14.18;;;7.28;;
76021;SDS011;64718;52.124;6.226;2023-04-06T05:09:09;17.95;;;7.32;;
76021;SDS011;64718;52.124;6.226;2023-04-06T05:11:36;15.45;;;7.47;;
76021;SDS011;64718;52.124;6.226;2023-04-06T05:14:02;13.50;;;6.88;;
76021;SDS011;64718;52.124;6.226;2023-04-06T05:16:31;15.88;;;7.22;;
76021;SDS011;64718;52.124;6.226;2023-04-06T05:18:57;16.00;;;6.40;;
76021;SDS011;64718;52.124;6.226;2023-04-06T05:21:27;14.85;;;7.75;;
76021;SDS011;64718;52.124;6.226;2023-04-06T05:23:55;14.95;;;7.20;;
76021;SDS011;64718;52.124;6.226;2023-04-06T05:26:21;13.50;;;9.32;;
76021;SDS011;64718;52.124;6.226;2023-04-06T05:28:48;13.88;;;7.43;;
76021;SDS011;64718;52.124;6.226;2023-04-06T05:31:14;14.48;;;7.30;;
76021;SDS011;64718;52.124;6.226;2023-04-06T05:33:41;14.75;;;7.70;;
76021;SDS011;64718;52.124;6.226;2023-04-06T05:36:07;11.60;;;7.70;;
76021;SDS011;64718;52.124;6.226;2023-04-06T05:38:34;13.68;;;7.35;;
76021;SDS011;64718;52.124;6.226;2023-04-06T05:41:02;11.93;;;6.85;;
76021;SDS011;64718;52.124;6.226;2023-04-06T05:43:29;13.70;;;7.50;;
76021;SDS011;64718;52.124;6.226;2023-04-06T05:45:58;13.65;;;7.10;;
76021;SDS011;64718;52.124;6.226;2023-04-06T05:48:24;14.98;;;7.45;;
76021;SDS011;64718;52.124;6.226;2023-04-06T05:50:51;14.75;;;7.40;;
76021;SDS011;64718;52.124;6.226;2023-04-06T05:53:18;13.27;;;6.65;;
76021;SDS011;64718;52.124;6.226;2023-04-06T05:55:46;12.18;;;6.55;;
76021;SDS011;64718;52.124;6.226;2023-04-06T05:58:13;14.77;;;7.07;;
76021;SDS011;64718;52.124;6.226;2023-04-06T06:00:42;12.30;;;7.22;;
76021;SDS011;64718;52.124;6.226;2023-04-06T06:03:10;11.02;;;6.60;;
76021;SDS011;64718;52.124;6.226;2023-04-06T06:05:38;12.43;;;7.03;;
76021;SDS011;64718;52.124;6.226;2023-04-06T06:08:04;11.77;;;7.05;;
76021;SDS011;64718;52.124;6.226;2023-04-06T06:10:31;11.60;;;7.57;;
76021;SDS011;64718;52.124;6.226;2023-04-06T06:12:57;13.45;;;6.97;;
76021;SDS011;64718;52.124;6.226;2023-04-06T06:15:25;14.02;;;7.63;;
76021;SDS011;64718;52.124;6.226;2023-04-06T06:17:52;10.18;;;6.15;;
76021;SDS011;64718;52.124;6.226;2023-04-06T06:20:18;10.68;;;7.22;;
76021;SDS011;64718;52.124;6.226;2023-04-06T06:22:45;14.07;;;7.72;;
76021;SDS011;64718;52.124;6.226;2023-04-06T06:25:11;10.82;;;7.20;;
76021;SDS011;64718;52.124;6.226;2023-04-06T06:27:38;13.10;;;7.13;;
76021;SDS011;64718;52.124;6.226;2023-04-06T06:30:05;13.13;;;7.65;;
76021;SDS011;64718;52.124;6.226;2023-04-06T06:32:33;12.77;;;8.07;;
76021;SDS011;64718;52.124;6.226;2023-04-06T06:35:00;13.48;;;6.82;;
76021;SDS011;64718;52.124;6.226;2023-04-06T06:37:27;11.80;;;6.43;;
76021;SDS011;64718;52.124;6.226;2023-04-06T06:39:54;14.15;;;8.43;;
76021;SDS011;64718;52.124;6.226;2023-04-06T06:42:20;13.45;;;7.53;;
76021;SDS011;64718;52.124;6.226;2023-04-06T06:44:47;11.10;;;6.82;;
76021;SDS011;64718;52.124;6.226;2023-04-06T06:47:13;12.52;;;7.95;;
76021;SDS011;64718;52.124;6.226;2023-04-06T06:49:41;14.73;;;8.32;;
76021;SDS011;64718;52.124;6.226;2023-04-06T06:52:08;12.90;;;7.78;;
76021;SDS011;64718;52.124;6.226;2023-04-06T06:54:34;12.57;;;8.00;;
76021;SDS011;64718;52.124;6.226;2023-04-06T06:57:01;13.05;;;8.07;;
76021;SDS011;64718;52.124;6.226;2023-04-06T06:59:27;13.55;;;8.02;;
76021;SDS011;64718;52.124;6.226;2023-04-06T07:01:54;13.80;;;7.57;;
76021;SDS011;64718;52.124;6.226;2023-04-06T07:04:20;11.23;;;7.20;;
76021;SDS011;64718;52.124;6.226;2023-04-06T07:06:48;12.52;;;8.27;;
76021;SDS011;64718;52.124;6.226;2023-04-06T07:09:15;12.68;;;7.78;;
76021;SDS011;64718;52.124;6.226;2023-04-06T07:11:42;14.43;;;8.05;;
76021;SDS011;64718;52.124;6.226;2023-04-06T07:14:08;12.82;;;7.82;;
76021;SDS011;64718;52.124;6.226;2023-04-06T07:16:36;12.65;;;7.72;;
76021;SDS011;64718;52.124;6.226;2023-04-06T07:19:03;12.52;;;7.30;;
76021;SDS011;64718;52.124;6.226;2023-04-06T07:21:29;13.15;;;8.40;;
76021;SDS011;64718;52.124;6.226;2023-04-06T07:23:57;15.50;;;8.18;;
76021;SDS011;64718;52.124;6.226;2023-04-06T07:26:24;13.40;;;7.72;;
76021;SDS011;64718;52.124;6.226;2023-04-06T07:28:50;12.27;;;7.97;;
76021;SDS011;64718;52.124;6.226;2023-04-06T07:31:17;14.35;;;8.25;;
76021;SDS011;64718;52.124;6.226;2023-04-06T07:33:43;14.15;;;8.63;;
76021;SDS011;64718;52.124;6.226;2023-04-06T07:36:10;16.60;;;9.52;;
76021;SDS011;64718;52.124;6.226;2023-04-06T07:38:36;13.23;;;8.57;;
76021;SDS011;64718;52.124;6.226;2023-04-06T07:41:04;13.32;;;9.43;;
76021;SDS011;64718;52.124;6.226;2023-04-06T07:43:31;18.88;;;9.73;;
76021;SDS011;64718;52.124;6.226;2023-04-06T07:45:57;15.68;;;10.20;;
76021;SDS011;64718;52.124;6.226;2023-04-06T07:48:24;13.18;;;9.23;;
76021;SDS011;64718;52.124;6.226;2023-04-06T07:50:51;12.75;;;8.25;;
76021;SDS011;64718;52.124;6.226;2023-04-06T07:53:18;14.55;;;8.50;;
76021;SDS011;64718;52.124;6.226;2023-04-06T07:55:44;15.38;;;9.07;;
76021;SDS011;64718;52.124;6.226;2023-04-06T07:58:12;13.35;;;9.68;;
76021;SDS011;64718;52.124;6.226;2023-04-06T08:00:39;14.85;;;10.20;;
76021;SDS011;64718;52.124;6.226;2023-04-06T08:03:05;14.52;;;8.93;;
76021;SDS011;64718;52.124;6.226;2023-04-06T08:05:32;14.70;;;8.45;;
76021;SDS011;64718;52.124;6.226;2023-04-06T08:07:58;12.52;;;7.97;;
76021;SDS011;64718;52.124;6.226;2023-04-06T08:10:25;18.08;;;8.77;;
76021;SDS011;64718;52.124;6.226;2023-04-06T08:12:52;13.70;;;8.00;;
76021;SDS011;64718;52.124;6.226;2023-04-06T08:15:20;17.70;;;10.55;;
76021;SDS011;64718;52.124;6.226;2023-04-06T08:17:46;18.75;;;8.93;;
76021;SDS011;64718;52.124;6.226;2023-04-06T08:20:13;15.13;;;9.18;;
76021;SDS011;64718;52.124;6.226;2023-04-06T08:22:39;13.65;;;8.73;;
76021;SDS011;64718;52.124;6.226;2023-04-06T08:25:06;16.77;;;8.90;;
76021;SDS011;64718;52.124;6.226;2023-04-06T08:27:33;13.82;;;8.68;;
76021;SDS011;64718;52.124;6.226;2023-04-06T08:29:59;17.27;;;9.23;;
76021;SDS011;64718;52.124;6.226;2023-04-06T08:32:27;16.00;;;9.52;;
76021;SDS011;64718;52.124;6.226;2023-04-06T08:34:54;14.95;;;9.43;;
76021;SDS011;64718;52.124;6.226;2023-04-06T08:37:21;15.00;;;8.80;;
76021;SDS011;64718;52.124;6.226;2023-04-06T08:39:50;14.88;;;9.70;;
76021;SDS011;64718;52.124;6.226;2023-04-06T08:42:19;16.85;;;11.48;;
76021;SDS011;64718;52.124;6.226;2023-04-06T08:44:47;17.08;;;10.63;;
76021;SDS011;64718;52.124;6.226;2023-04-06T08:47:15;14.18;;;10.40;;
76021;SDS011;64718;52.124;6.226;2023-04-06T08:49:43;14.43;;;9.70;;
76021;SDS011;64718;52.124;6.226;2023-04-06T08:52:11;16.20;;;9.35;;
76021;SDS011;64718;52.124;6.226;2023-04-06T08:54:38;16.15;;;10.02;;
76021;SDS011;64718;52.124;6.226;2023-04-06T08:57:05;16.45;;;9.57;;
76021;SDS011;64718;52.124;6.226;2023-04-06T08:59:33;14.68;;;9.02;;
76021;SDS011;64718;52.124;6.226;2023-04-06T09:02:01;18.42;;;9.75;;
76021;SDS011;64718;52.124;6.226;2023-04-06T09:04:33;16.55;;;10.98;;
76021;SDS011;64718;52.124;6.226;2023-04-06T09:07:03;16.45;;;9.55;;
76021;SDS011;64718;52.124;6.226;2023-04-06T09:09:30;15.82;;;9.43;;
76021;SDS011;64718;52.124;6.226;2023-04-06T09:11:57;15.60;;;8.77;;
76021;SDS011;64718;52.124;6.226;2023-04-06T09:14:37;16.00;;;9.55;;
76021;SDS011;64718;52.124;6.226;2023-04-06T09:17:05;18.95;;;13.15;;
76021;SDS011;64718;52.124;6.226;2023-04-06T09:19:32;16.23;;;9.63;;
76021;SDS011;64718;52.124;6.226;2023-04-06T09:22:04;16.98;;;9.73;;
76021;SDS011;64718;52.124;6.226;2023-04-06T09:24:42;15.18;;;9.18;;
76021;SDS011;64718;52.124;6.226;2023-04-06T09:27:10;19.45;;;11.95;;
76021;SDS011;64718;52.124;6.226;2023-04-06T09:29:36;15.40;;;8.90;;
76021;SDS011;64718;52.124;6.226;2023-04-06T09:32:03;15.98;;;9.63;;
76021;SDS011;64718;52.124;6.226;2023-04-06T09:34:30;14.45;;;10.68;;
76021;SDS011;64718;52.124;6.226;2023-04-06T09:36:57;18.42;;;9.23;;
76021;SDS011;64718;52.124;6.226;2023-04-06T09:39:25;14.70;;;9.07;;
76021;SDS011;64718;52.124;6.226;2023-04-06T09:41:52;17.02;;;9.30;;
76021;SDS011;64718;52.124;6.226;2023-04-06T09:44:20;16.38;;;8.75;;
76021;SDS011;64718;52.124;6.226;2023-04-06T09:46:48;17.05;;;9.48;;
76021;SDS011;64718;52.124;6.226;2023-04-06T09:49:19;14.70;;;8.35;;
76021;SDS011;64718;52.124;6.226;2023-04-06T09:51:47;14.52;;;8.40;;
76021;SDS011;64718;52.124;6.226;2023-04-06T09:54:20;16.85;;;9.82;;
76021;SDS011;64718;52.124;6.226;2023-04-06T09:56:50;19.15;;;9.80;;
76021;SDS011;64718;52.124;6.226;2023-04-06T09:59:24;16.15;;;9.38;;
76021;SDS011;64718;52.124;6.226;2023-04-06T10:01:56;14.88;;;8.80;;
76021;SDS011;64718;52.124;6.226;2023-04-06T10:04:27;17.40;;;8.90;;
76021;SDS011;64718;52.124;6.226;2023-04-06T10:07:02;16.35;;;8.38;;
76021;SDS011;64718;52.124;6.226;2023-04-06T10:09:32;16.35;;;9.13;;
76021;SDS011;64718;52.124;6.226;2023-04-06T10:12:04;17.35;;;10.60;;
76021;SDS011;64718;52.124;6.226;2023-04-06T10:14:32;15.98;;;8.65;;
76021;SDS011;64718;52.124;6.226;2023-04-06T10:17:02;14.05;;;8.27;;
76021;SDS011;64718;52.124;6.226;2023-04-06T10:19:31;16.52;;;9.57;;
76021;SDS011;64718;52.124;6.226;2023-04-06T10:22:03;16.77;;;9.57;;
76021;SDS011;64718;52.124;6.226;2023-04-06T10:27:02;21.27;;;9.52;;
76021;SDS011;64718;52.124;6.226;2023-04-06T10:29:42;14.50;;;8.65;;
76021;SDS011;64718;52.124;6.226;2023-04-06T10:32:11;17.00;;;9.55;;
76021;SDS011;64718;52.124;6.226;2023-04-06T10:34:38;18.85;;;10.38;;
76021;SDS011;64718;52.124;6.226;2023-04-06T10:37:11;15.20;;;8.77;;
76021;SDS011;64718;52.124;6.226;2023-04-06T10:39:45;14.65;;;8.95;;
76021;SDS011;64718;52.124;6.226;2023-04-06T10:42:13;15.70;;;9.10;;
76021;SDS011;64718;52.124;6.226;2023-04-06T10:44:42;17.35;;;9.90;;
76021;SDS011;64718;52.124;6.226;2023-04-06T10:47:15;15.98;;;9.00;;
76021;SDS011;64718;52.124;6.226;2023-04-06T10:49:43;16.35;;;9.18;;
76021;SDS011;64718;52.124;6.226;2023-04-06T10:52:10;17.08;;;9.55;;
76021;SDS011;64718;52.124;6.226;2023-04-06T10:54:40;18.65;;;10.32;;
76021;SDS011;64718;52.124;6.226;2023-04-06T10:57:08;18.65;;;10.77;;
76021;SDS011;64718;52.124;6.226;2023-04-06T10:59:37;16.98;;;9.63;;
76021;SDS011;64718;52.124;6.226;2023-04-06T11:02:08;17.58;;;9.10;;
76021;SDS011;64718;52.124;6.226;2023-04-06T11:04:35;15.90;;;8.85;;
76021;SDS011;64718;52.124;6.226;2023-04-06T11:07:01;18.27;;;10.57;;
76021;SDS011;64718;52.124;6.226;2023-04-06T11:09:29;16.55;;;8.85;;
76021;SDS011;64718;52.124;6.226;2023-04-06T11:11:57;15.25;;;9.00;;
76021;SDS011;64718;52.124;6.226;2023-04-06T11:14:23;18.17;;;8.82;;
76021;SDS011;64718;52.124;6.226;2023-04-06T11:16:52;18.15;;;9.40;;
76021;SDS011;64718;52.124;6.226;2023-04-06T11:19:19;16.98;;;9.88;;
76021;SDS011;64718;52.124;6.226;2023-04-06T11:21:46;16.55;;;9.23;;
76021;SDS011;64718;52.124;6.226;2023-04-06T11:24:18;15.88;;;8.80;;
76021;SDS011;64718;52.124;6.226;2023-04-06T11:26:48;18.80;;;9.27;;
76021;SDS011;64718;52.124;6.226;2023-04-06T11:29:17;15.10;;;8.75;;
76021;SDS011;64718;52.124;6.226;2023-04-06T11:31:48;20.10;;;10.15;;
76021;SDS011;64718;52.124;6.226;2023-04-06T11:34:19;18.60;;;9.25;;
76021;SDS011;64718;52.124;6.226;2023-04-06T11:36:47;15.48;;;9.18;;
76021;SDS011;64718;52.124;6.226;2023-04-06T11:41:48;16.48;;;9.20;;
76021;SDS011;64718;52.124;6.226;2023-04-06T11:44:15;14.80;;;8.93;;
76021;SDS011;64718;52.124;6.226;2023-04-06T11:46:53;14.60;;;8.32;;
76021;SDS011;64718;52.124;6.226;2023-04-06T11:49:21;15.43;;;7.45;;
76021;SDS011;64718;52.124;6.226;2023-04-06T11:51:47;11.95;;;7.03;;
76021;SDS011;64718;52.124;6.226;2023-04-06T11:54:14;14.07;;;8.15;;
76021;SDS011;64718;52.124;6.226;2023-04-06T11:56:41;12.38;;;7.57;;
76021;SDS011;64718;52.124;6.226;2023-04-06T11:59:12;15.70;;;8.32;;
76021;SDS011;64718;52.124;6.226;2023-04-06T12:01:44;15.63;;;8.38;;
76021;SDS011;64718;52.124;6.226;2023-04-06T12:04:11;12.82;;;7.78;;
76021;SDS011;64718;52.124;6.226;2023-04-06T12:06:39;16.02;;;7.85;;
76021;SDS011;64718;52.124;6.226;2023-04-06T12:09:06;13.75;;;8.25;;
76021;SDS011;64718;52.124;6.226;2023-04-06T12:11:33;13.80;;;8.85;;
76021;SDS011;64718;52.124;6.226;2023-04-06T12:14:01;13.65;;;8.80;;
76021;SDS011;64718;52.124;6.226;2023-04-06T12:16:34;16.35;;;9.00;;
76021;SDS011;64718;52.124;6.226;2023-04-06T12:19:00;12.85;;;8.48;;
76021;SDS011;64718;52.124;6.226;2023-04-06T12:21:28;13.20;;;7.80;;
76021;SDS011;64718;52.124;6.226;2023-04-06T12:23:57;13.43;;;7.95;;
76021;SDS011;64718;52.124;6.226;2023-04-06T12:26:23;11.70;;;7.22;;
76021;SDS011;64718;52.124;6.226;2023-04-06T12:28:50;15.45;;;8.25;;
76021;SDS011;64718;52.124;6.226;2023-04-06T12:31:17;13.95;;;8.20;;
76021;SDS011;64718;52.124;6.226;2023-04-06T12:33:46;13.93;;;8.00;;
76021;SDS011;64718;52.124;6.226;2023-04-06T12:36:13;14.55;;;8.27;;
76021;SDS011;64718;52.124;6.226;2023-04-06T12:38:40;15.98;;;9.52;;
76021;SDS011;64718;52.124;6.226;2023-04-06T12:41:11;15.23;;;8.90;;
76021;SDS011;64718;52.124;6.226;2023-04-06T12:43:38;13.90;;;8.82;;
76021;SDS011;64718;52.124;6.226;2023-04-06T12:46:05;12.73;;;8.25;;
76021;SDS011;64718;52.124;6.226;2023-04-06T12:48:33;15.20;;;8.52;;
76021;SDS011;64718;52.124;6.226;2023-04-06T12:51:00;15.07;;;7.85;;
76021;SDS011;64718;52.124;6.226;2023-04-06T12:53:28;14.15;;;8.27;;
76021;SDS011;64718;52.124;6.226;2023-04-06T12:55:54;15.13;;;8.20;;
76021;SDS011;64718;52.124;6.226;2023-04-06T12:58:23;15.88;;;8.73;;
76021;SDS011;64718;52.124;6.226;2023-04-06T13:00:52;13.35;;;7.45;;
76021;SDS011;64718;52.124;6.226;2023-04-06T13:03:18;11.77;;;7.13;;
76021;SDS011;64718;52.124;6.226;2023-04-06T13:05:50;13.30;;;8.70;;
76021;SDS011;64718;52.124;6.226;2023-04-06T13:08:19;10.77;;;6.53;;
76021;SDS011;64718;52.124;6.226;2023-04-06T13:10:46;11.27;;;6.93;;
76021;SDS011;64718;52.124;6.226;2023-04-06T13:13:14;11.80;;;7.00;;
76021;SDS011;64718;52.124;6.226;2023-04-06T13:15:42;14.65;;;9.40;;
76021;SDS011;64718;52.124;6.226;2023-04-06T13:18:08;10.63;;;5.97;;
76021;SDS011;64718;52.124;6.226;2023-04-06T13:20:35;12.40;;;7.13;;
76021;SDS011;64718;52.124;6.226;2023-04-06T13:23:02;9.70;;;6.20;;
76021;SDS011;64718;52.124;6.226;2023-04-06T13:25:29;13.82;;;7.13;;
76021;SDS011;64718;52.124;6.226;2023-04-06T13:27:57;12.13;;;6.95;;
76021;SDS011;64718;52.124;6.226;2023-04-06T13:30:24;11.35;;;6.78;;
76021;SDS011;64718;52.124;6.226;2023-04-06T13:32:52;11.20;;;6.10;;
76021;SDS011;64718;52.124;6.226;2023-04-06T13:35:19;11.13;;;5.60;;
76021;SDS011;64718;52.124;6.226;2023-04-06T13:37:50;11.68;;;5.88;;
76021;SDS011;64718;52.124;6.226;2023-04-06T13:40:17;10.10;;;5.18;;
76021;SDS011;64718;52.124;6.226;2023-04-06T13:42:43;11.55;;;5.88;;
76021;SDS011;64718;52.124;6.226;2023-04-06T13:45:11;12.07;;;6.18;;
76021;SDS011;64718;52.124;6.226;2023-04-06T13:47:38;11.85;;;7.15;;
76021;SDS011;64718;52.124;6.226;2023-04-06T13:50:06;12.45;;;6.50;;
76021;SDS011;64718;52.124;6.226;2023-04-06T13:52:34;11.82;;;6.28;;
76021;SDS011;64718;52.124;6.226;2023-04-06T13:55:01;14.20;;;6.45;;
76021;SDS011;64718;52.124;6.226;2023-04-06T13:57:28;10.70;;;6.10;;
76021;SDS011;64718;52.124;6.226;2023-04-06T13:59:55;11.77;;;5.85;;
76021;SDS011;64718;52.124;6.226;2023-04-06T14:02:22;10.13;;;4.60;;
76021;SDS011;64718;52.124;6.226;2023-04-06T14:04:52;9.85;;;5.30;;
76021;SDS011;64718;52.124;6.226;2023-04-06T14:07:20;10.65;;;5.80;;
76021;SDS011;64718;52.124;6.226;2023-04-06T14:09:47;9.70;;;5.90;;
76021;SDS011;64718;52.124;6.226;2023-04-06T14:12:13;10.77;;;5.97;;
76021;SDS011;64718;52.124;6.226;2023-04-06T14:14:40;9.32;;;5.07;;
76021;SDS011;64718;52.124;6.226;2023-04-06T14:17:06;9.38;;;5.05;;
76021;SDS011;64718;52.124;6.226;2023-04-06T14:19:33;8.50;;;5.00;;
76021;SDS011;64718;52.124;6.226;2023-04-06T14:22:01;9.50;;;5.88;;
76021;SDS011;64718;52.124;6.226;2023-04-06T14:24:28;10.80;;;6.03;;
76021;SDS011;64718;52.124;6.226;2023-04-06T14:26:55;9.70;;;6.95;;
76021;SDS011;64718;52.124;6.226;2023-04-06T14:29:22;11.07;;;5.60;;
76021;SDS011;64718;52.124;6.226;2023-04-06T14:31:52;11.23;;;5.88;;
76021;SDS011;64718;52.124;6.226;2023-04-06T14:34:24;9.50;;;5.20;;
76021;SDS011;64718;52.124;6.226;2023-04-06T14:36:51;8.95;;;5.15;;
76021;SDS011;64718;52.124;6.226;2023-04-06T14:39:17;10.05;;;4.85;;
76021;SDS011;64718;52.124;6.226;2023-04-06T14:41:52;8.55;;;4.95;;
76021;SDS011;64718;52.124;6.226;2023-04-06T14:44:18;9.90;;;5.60;;